Time;durP1;ratioP1;P1;durP2;ratioP2;P2;SDS_P1;SDS_P2;PMS_P1;PMS_P2;Temp;Humidity;BMP_temperature;BMP_pressure;BME280_temperature;BME280_humidity;BME280_pressure;Samples;Min_cycle;Max_cycle;Signal;HPM_P1;HPM_P2
2023/03/23 00:01:46;;;;;;;;;;;;;;;;;;5077845;28;19951;-76
2023/03/23 00:04:12;;;;;;;;;;;;;;;;;;5067870;28;19913;-76
2023/03/23 00:06:37;;;;;;;;;;;;;;;;;;5071962;28;19924;-74
2023/03/23 00:09:03;;;;;;;;;;;;;;;;;;5079221;28;19984;-77
2023/03/23 00:11:31;;;;;;;;;;;;;;;;;;5071628;28;19927;-79
2023/03/23 00:13:57;;;;;;;;;;;;;;;;;;5071147;28;19913;-76
2023/03/23 00:16:28;;;;;;;;;;;;;;;;;;5073689;28;19909;-79
2023/03/23 00:18:54;;;;;;;;;;;;;;;;;;5070824;28;19955;-77
2023/03/23 00:21:19;;;;;;;;;;;;;;;;;;5091746;28;19928;-76
2023/03/23 00:23:45;;;;;;;;;;;;;;;;;;5084656;28;20004;-77
2023/03/23 00:26:10;;;;;;;;;;;;;;;;;;5069383;28;19984;-77
2023/03/23 00:28:35;;;;;;;;;;;;;;;;;;5077416;28;19921;-78
2023/03/23 00:31:00;;;;;;;;;;;;;;;;;;5064747;28;19912;-77
2023/03/23 00:33:26;;;;;;;;;;;;;;;;;;5074052;28;20383;-77
2023/03/23 00:35:52;;;;;;;;;;;;;;;;;;5081716;28;19917;-76
2023/03/23 00:38:18;;;;;;;;;;;;;;;;;;5075073;28;19919;-77
2023/03/23 00:40:43;;;;;;;;;;;;;;;;;;5066163;28;19934;-78
2023/03/23 00:43:13;;;;;;;;;;;;;;;;;;5071118;28;19917;-78
2023/03/23 00:45:38;;;;;;;;;;;;;;;;;;5083141;28;19920;-77
2023/03/23 00:48:04;;;;;;;;;;;;;;;;;;5076108;28;19916;-77
2023/03/23 00:50:30;;;;;;;;;;;;;;;;;;5070290;28;19924;-76
2023/03/23 00:52:56;;;;;;;;;;;;;;;;;;5079943;28;19913;-77
2023/03/23 00:55:22;;;;;;;;;;;;;;;;;;5084013;28;19909;-77
2023/03/23 00:57:50;;;;;;;;;;;;;;;;;;5073387;28;19913;-76
2023/03/23 01:00:16;;;;;;;;;;;;;;;;;;5071396;28;19913;-77
2023/03/23 01:02:44;;;;;;;;;;;;;;;;;;5072487;28;19912;-77
2023/03/23 01:05:09;;;;;;;;;;;;;;;;;;5069561;28;19921;-77
2023/03/23 01:07:34;;;;;;;;;;;;;;;;;;5075101;28;19913;-78
2023/03/23 01:10:02;;;;;;;;;;;;;;;;;;5064741;28;19909;-76
2023/03/23 01:12:27;;;;;;;;;;;;;;;;;;5065723;28;19913;-75
2023/03/23 01:14:52;;;;;;;;;;;;;;;;;;5074144;28;19954;-76
2023/03/23 01:17:18;;;;;;;;;;;;;;;;;;5083044;28;19952;-77
2023/03/23 01:19:43;;;;;;;;;;;;;;;;;;5076195;28;19917;-76
2023/03/23 01:22:09;;;;;;;;;;;;;;;;;;5073965;28;20387;-77
2023/03/23 01:24:34;;;;;;;;;;;;;;;;;;5084371;28;19919;-76
2023/03/23 01:27:06;;;;;;;;;;;;;;;;;;5072882;28;19939;-76
2023/03/23 01:29:31;;;;;;;;;;;;;;;;;;5077031;28;19912;-77
2023/03/23 01:31:56;;;;;;;;;;;;;;;;;;5075185;28;19913;-77
2023/03/23 01:34:22;;;;;;;;;;;;;;;;;;5070798;28;20028;-76
2023/03/23 01:36:47;;;;;;;;;;;;;;;;;;5066128;28;19913;-77
2023/03/23 01:39:12;;;;;;;;;;;;;;;;;;5075312;28;19920;-76
2023/03/23 01:41:39;;;;;;;;;;;;;;;;;;5065935;28;19912;-78
2023/03/23 01:44:04;;;;;;;;;;;;;;;;;;5067582;28;19908;-77
2023/03/23 01:46:30;;;;;;;;;;;;;;;;;;5067401;28;19975;-77
2023/03/23 01:48:55;;;;;;;;;;;;;;;;;;5089269;28;19941;-76
2023/03/23 01:51:21;;;;;;;;;;;;;;;;;;5069808;28;19936;-77
2023/03/23 01:53:46;;;;;;;;;;;;;;;;;;5067352;28;19912;-76
2023/03/23 01:56:12;;;;;;;;;;;;;;;;;;5063199;28;20353;-77
2023/03/23 01:58:37;;;;;;;;;;;;;;;;;;5065912;28;19913;-76
2023/03/23 02:01:02;;;;;;;;;;;;;;;;;;5066763;28;19928;-77
2023/03/23 02:03:27;;;;;;;;;;;;;;;;;;5072154;28;19916;-78
2023/03/23 02:05:52;;;;;;;;;;;;;;;;;;5072662;28;19917;-78
2023/03/23 02:08:18;;;;;;;;;;;;;;;;;;5074672;28;19919;-78
2023/03/23 02:10:43;;;;;;;;;;;;;;;;;;5073399;28;20572;-77
2023/03/23 02:13:08;;;;;;;;;;;;;;;;;;5074893;28;20047;-76
2023/03/23 02:15:33;;;;;;;;;;;;;;;;;;5080410;28;19913;-76
2023/03/23 02:17:58;;;;;;;;;;;;;;;;;;5078503;28;19943;-77
2023/03/23 02:20:23;;;;;;;;;;;;;;;;;;5085712;28;19913;-77
2023/03/23 02:22:50;;;;;;;;;;;;;;;;;;5075959;28;19913;-76
2023/03/23 02:25:15;;;;;;;;;;;;;;;;;;5072290;28;19920;-76
2023/03/23 02:27:41;;;;;;;;;;;;;;;;;;5072982;28;19913;-76
2023/03/23 02:30:06;;;;;;;;;;;;;;;;;;5074426;28;19975;-78
2023/03/23 02:32:31;;;;;;;;;;;;;;;;;;5074733;28;19983;-77
2023/03/23 02:34:57;;;;;;;;;;;;;;;;;;5074936;28;19913;-78
2023/03/23 02:37:22;;;;;;;;;;;;;;;;;;5079297;28;19958;-76
2023/03/23 02:39:48;;;;;;;;;;;;;;;;;;5064508;28;19995;-76
2023/03/23 02:42:13;;;;;;;;;;;;;;;;;;5073061;28;19913;-77
2023/03/23 02:44:40;;;;;;;;;;;;;;;;;;5076332;28;19924;-78
2023/03/23 02:47:05;;;;;;;;;;;;;;;;;;5082749;28;19925;-77
2023/03/23 02:49:31;;;;;;;;;;;;;;;;;;5069883;28;19917;-77
2023/03/23 02:51:56;;;;;;;;;;;;;;;;;;5064290;28;19913;-78
2023/03/23 02:54:25;;;;;;;;;;;;;;;;;;5066278;28;20056;-77
2023/03/23 02:56:51;;;;;;;;;;;;;;;;;;5064155;28;20000;-78
2023/03/23 02:59:16;;;;;;;;;;;;;;;;;;5064768;28;19944;-78
2023/03/23 03:01:41;;;;;;;;;;;;;;;;;;5072729;28;19919;-76
2023/03/23 03:04:06;;;;;;;;;;;;;;;;;;5071282;28;19939;-76
2023/03/23 03:06:31;;;;;;;;;;;;;;;;;;5068854;28;19916;-76
2023/03/23 03:08:57;;;;;;;;;;;;;;;;;;5075599;28;19920;-77
2023/03/23 03:11:25;;;;;;;;;;;;;;;;;;5079002;28;19916;-76
2023/03/23 03:13:52;;;;;;;;;;;;;;;;;;5066090;28;19916;-76
2023/03/23 03:16:17;;;;;;;;;;;;;;;;;;5070399;28;19917;-76
2023/03/23 03:18:42;;;;;;;;;;;;;;;;;;5082939;28;19923;-78
2023/03/23 03:21:07;;;;;;;;;;;;;;;;;;5058860;28;19919;-78
2023/03/23 03:23:33;;;;;;;;;;;;;;;;;;5066424;28;19916;-76
2023/03/23 03:25:58;;;;;;;;;;;;;;;;;;5066302;28;19983;-77
2023/03/23 03:28:24;;;;;;;;;;;;;;;;;;5071688;28;19912;-77
2023/03/23 03:30:49;;;;;;;;;;;;;;;;;;5063354;28;19927;-77
2023/03/23 03:33:14;;;;;;;;;;;;;;;;;;5062054;28;19920;-77
2023/03/23 03:35:39;;;;;;;;;;;;;;;;;;5063807;28;19921;-76
2023/03/23 03:38:04;;;;;;;;;;;;;;;;;;5065923;28;19947;-76
2023/03/23 03:40:29;;;;;;;;;;;;;;;;;;5067050;28;19924;-78
2023/03/23 03:42:55;;;;;;;;;;;;;;;;;;5067823;28;20004;-74
2023/03/23 03:45:20;;;;;;;;;;;;;;;;;;5052762;28;19924;-74
2023/03/23 03:47:45;;;;;;;;;;;;;;;;;;5058508;28;19959;-74
2023/03/23 03:50:11;;;;;;;;;;;;;;;;;;5055908;28;19916;-71
2023/03/23 03:52:40;;;;;;;;;;;;;;;;;;5055826;28;19956;-71
2023/03/23 03:55:05;;;;;;;;;;;;;;;;;;5060534;28;20348;-70
2023/03/23 03:57:31;;;;;;;;;;;;;;;;;;5059840;28;20395;-70
2023/03/23 03:59:56;;;;;;;;;;;;;;;;;;5058320;28;19919;-70
2023/03/23 04:02:22;;;;;;;;;;;;;;;;;;5054762;28;19917;-69
2023/03/23 04:04:48;;;;;;;;;;;;;;;;;;5058957;28;19963;-69
2023/03/23 04:07:13;;;;;;;;;;;;;;;;;;5060323;28;19955;-70
2023/03/23 04:09:38;;;;;;;;;;;;;;;;;;5059699;28;19948;-69
2023/03/23 04:12:04;;;;;;;;;;;;;;;;;;5066410;28;19913;-69
2023/03/23 04:14:29;;;;;;;;;;;;;;;;;;5066582;28;19966;-70
2023/03/23 04:16:56;;;;;;;;;;;;;;;;;;5060388;28;19917;-70
2023/03/23 04:19:21;;;;;;;;;;;;;;;;;;4954262;28;2927649;-69
2023/03/23 04:21:48;;;;;;;;;;;;;;;;;;5061729;28;19920;-71
2023/03/23 04:24:14;;;;;;;;;;;;;;;;;;5061690;28;19913;-69
2023/03/23 04:26:41;;;;;;;;;;;;;;;;;;5058346;28;19967;-69
2023/03/23 04:29:06;;;;;;;;;;;;;;;;;;5062351;28;19957;-71
2023/03/23 04:31:32;;;;;;;;;;;;;;;;;;5057440;28;19924;-71
2023/03/23 04:33:59;;;;;;;;;;;;;;;;;;5060066;28;19920;-70
2023/03/23 04:36:25;;;;;;;;;;;;;;;;;;5058179;28;20258;-70
2023/03/23 04:38:50;;;;;;;;;;;;;;;;;;5064712;28;20379;-70
2023/03/23 04:41:15;;;;;;;;;;;;;;;;;;5058075;28;19916;-70
2023/03/23 04:43:43;;;;;;;;;;;;;;;;;;5064174;28;20019;-70
2023/03/23 04:46:10;;;;;;;;;;;;;;;;;;5059194;28;19927;-70
2023/03/23 04:48:35;;;;;;;;;;;;;;;;;;5058128;28;20288;-71
2023/03/23 04:51:02;;;;;;;;;;;;;;;;;;5057924;28;19917;-71
2023/03/23 04:53:27;;;;;;;;;;;;;;;;;;5056169;28;20399;-71
2023/03/23 04:55:52;;;;;;;;;;;;;;;;;;5055672;28;19994;-70
2023/03/23 04:58:18;;;;;;;;;;;;;;;;;;5057444;28;19931;-70
2023/03/23 05:00:43;;;;;;;;;;;;;;;;;;5070796;28;20372;-69
2023/03/23 05:03:09;;;;;;;;;;;;;;;;;;5061640;28;19916;-71
2023/03/23 05:05:35;;;;;;;;;;;;;;;;;;5059357;28;19927;-70
2023/03/23 05:08:00;;;;;;;;;;;;;;;;;;5058830;28;19913;-70
2023/03/23 05:10:25;;;;;;;;;;;;;;;;;;5056242;28;19912;-71
2023/03/23 05:12:51;;;;;;;;;;;;;;;;;;5062685;28;20364;-71
2023/03/23 05:15:17;;;;;;;;;;;;;;;;;;5061017;28;19956;-71
2023/03/23 05:17:45;;;;;;;;;;;;;;;;;;5056718;28;20335;-71
2023/03/23 05:20:11;;;;;;;;;;;;;;;;;;5052996;28;20003;-70
2023/03/23 05:22:36;;;;;;;;;;;;;;;;;;5060651;28;20008;-71
2023/03/23 05:25:05;;;;;;;;;;;;;;;;;;5056820;28;20269;-71
2023/03/23 05:27:30;;;;;;;;;;;;;;;;;;5061602;28;19963;-71
2023/03/23 05:29:55;;;;;;;;;;;;;;;;;;5054756;28;19913;-71
2023/03/23 05:32:20;;;;;;;;;;;;;;;;;;5061279;28;19936;-70
2023/03/23 05:34:46;;;;;;;;;;;;;;;;;;5052540;28;19952;-71
2023/03/23 05:37:11;;;;;;;;;;;;;;;;;;5061566;28;20295;-70
2023/03/23 05:39:37;;;;;;;;;;;;;;;;;;5054999;28;19935;-70
2023/03/23 05:42:02;;;;;;;;;;;;;;;;;;5066069;28;19985;-70
2023/03/23 05:44:29;;;;;;;;;;;;;;;;;;5060387;28;20276;-70
2023/03/23 05:46:54;;;;;;;;;;;;;;;;;;5058609;28;19912;-70
2023/03/23 05:49:19;;;;;;;;;;;;;;;;;;5057712;28;20442;-70
2023/03/23 05:51:45;;;;;;;;;;;;;;;;;;5070033;28;19913;-70
2023/03/23 05:54:10;;;;;;;;;;;;;;;;;;5055425;28;20387;-70
2023/03/23 05:56:35;;;;;;;;;;;;;;;;;;5055318;28;19909;-70
2023/03/23 05:59:02;;;;;;;;;;;;;;;;;;5062976;28;19921;-70
2023/03/23 06:01:27;;;;;;;;;;;;;;;;;;5054264;28;19992;-70
2023/03/23 06:03:53;;;;;;;;;;;;;;;;;;5062015;28;19999;-70
2023/03/23 06:06:19;;;;;;;;;;;;;;;;;;5058941;28;19967;-70
2023/03/23 06:08:44;;;;;;;;;;;;;;;;;;5059185;28;19931;-70
2023/03/23 06:11:11;;;;;;;;;;;;;;;;;;5060303;28;20003;-70
2023/03/23 06:13:37;;;;;;;;;;;;;;;;;;5058461;28;19913;-70
2023/03/23 06:16:03;;;;;;;;;;;;;;;;;;5058638;28;19915;-70
2023/03/23 06:18:31;;;;;;;;;;;;;;;;;;5055689;28;19925;-71
2023/03/23 06:20:56;;;;;;;;;;;;;;;;;;5054506;28;19920;-70
2023/03/23 06:23:22;;;;;;;;;;;;;;;;;;5056655;28;19917;-70
2023/03/23 06:25:47;;;;;;;;;;;;;;;;;;5063801;28;19917;-71
2023/03/23 06:28:12;;;;;;;;;;;;;;;;;;5053729;28;20007;-70
2023/03/23 06:30:37;;;;;;;;;;;;;;;;;;5054142;28;20292;-70
2023/03/23 06:33:05;;;;;;;;;;;;;;;;;;5059221;28;20043;-71
2023/03/23 06:35:30;;;;;;;;;;;;;;;;;;5056406;28;19924;-71
2023/03/23 06:37:58;;;;;;;;;;;;;;;;;;5058705;28;19912;-71
2023/03/23 06:40:23;;;;;;;;;;;;;;;;;;5053923;28;19913;-71
2023/03/23 06:42:48;;;;;;;;;;;;;;;;;;5056745;28;19923;-70
2023/03/23 06:45:13;;;;;;;;;;;;;;;;;;5060186;28;19921;-70
2023/03/23 06:47:38;;;;;;;;;;;;;;;;;;5055138;28;20010;-70
2023/03/23 06:50:03;;;;;;;;;;;;;;;;;;5059318;28;19916;-70
2023/03/23 06:52:29;;;;;;;;;;;;;;;;;;5062128;28;19932;-69
2023/03/23 06:54:54;;;;;;;;;;;;;;;;;;5062895;28;20368;-70
2023/03/23 06:57:20;;;;;;;;;;;;;;;;;;5059822;28;19923;-71
2023/03/23 06:59:45;;;;;;;;;;;;;;;;;;5062629;28;19975;-71
2023/03/23 07:02:11;;;;;;;;;;;;;;;;;;5063206;28;19962;-69
2023/03/23 07:04:37;;;;;;;;;;;;;;;;;;5061395;28;20497;-71
2023/03/23 07:07:02;;;;;;;;;;;;;;;;;;5060657;28;19913;-71
2023/03/23 07:09:27;;;;;;;;;;;;;;;;;;5063039;28;19923;-71
2023/03/23 07:11:53;;;;;;;;;;;;;;;;;;5059905;28;19913;-71
2023/03/23 07:14:18;;;;;;;;;;;;;;;;;;5062206;28;19916;-70
2023/03/23 07:16:43;;;;;;;;;;;;;;;;;;5075120;28;19912;-70
2023/03/23 07:19:08;;;;;;;;;;;;;;;;;;5076278;28;19946;-70
2023/03/23 07:21:34;;;;;;;;;;;;;;;;;;5069469;28;20387;-70
2023/03/23 07:23:59;;;;;;;;;;;;;;;;;;5078608;28;19935;-70
2023/03/23 07:26:24;;;;;;;;;;;;;;;;;;5078995;28;19931;-70
2023/03/23 07:28:50;;;;;;;;;;;;;;;;;;5084404;28;19908;-70
2023/03/23 07:31:16;;;;;;;;;;;;;;;;;;5079231;28;19962;-70
2023/03/23 07:33:41;;;;;;;;;;;;;;;;;;5083597;28;19932;-71
2023/03/23 07:36:07;;;;;;;;;;;;;;;;;;5058591;28;19919;-70
2023/03/23 07:38:32;;;;;;;;;;;;;;;;;;5079476;28;19913;-70
2023/03/23 07:40:58;;;;;;;;;;;;;;;;;;5079922;28;20291;-70
2023/03/23 07:43:23;;;;;;;;;;;;;;;;;;5075304;28;20007;-70
2023/03/23 07:45:48;;;;;;;;;;;;;;;;;;5076483;28;20024;-70
2023/03/23 07:48:13;;;;;;;;;;;;;;;;;;5079908;28;19912;-70
2023/03/23 07:50:38;;;;;;;;;;;;;;;;;;5076060;28;20358;-70
2023/03/23 07:53:03;;;;;;;;;;;;;;;;;;5087364;28;19982;-70
2023/03/23 07:55:28;;;;;;;;;;;;;;;;;;5082353;28;19920;-70
2023/03/23 07:57:53;;;;;;;;;;;;;;;;;;5082375;28;19920;-70
2023/03/23 08:00:23;;;;;;;;;;;;;;;;;;5081268;28;19916;-70
2023/03/23 08:02:48;;;;;;;;;;;;;;;;;;5068461;28;19926;-70
2023/03/23 08:05:13;;;;;;;;;;;;;;;;;;5058769;28;20356;-69
2023/03/23 08:07:39;;;;;;;;;;;;;;;;;;5082001;28;19964;-70
2023/03/23 08:10:04;;;;;;;;;;;;;;;;;;5078172;28;19974;-70
2023/03/23 08:12:30;;;;;;;;;;;;;;;;;;5055515;28;19920;-70
2023/03/23 08:14:55;;;;;;;;;;;;;;;;;;5080949;28;19912;-70
2023/03/23 08:17:20;;;;;;;;;;;;;;;;;;5078578;28;19913;-71
2023/03/23 08:19:45;;;;;;;;;;;;;;;;;;5082279;28;20000;-70
2023/03/23 08:22:10;;;;;;;;;;;;;;;;;;5075001;28;19952;-70
2023/03/23 08:24:35;;;;;;;;;;;;;;;;;;5080486;28;19935;-70
2023/03/23 08:27:01;;;;;;;;;;;;;;;;;;5081675;28;19919;-70
2023/03/23 08:29:26;;;;;;;;;;;;;;;;;;5078643;28;20341;-69
2023/03/23 08:31:51;;;;;;;;;;;;;;;;;;5061876;28;19916;-70
2023/03/23 08:34:16;;;;;;;;;;;;;;;;;;5082522;28;20272;-71
2023/03/23 08:36:43;;;;;;;;;;;;;;;;;;5084272;28;19954;-70
2023/03/23 08:39:09;;;;;;;;;;;;;;;;;;5075717;28;19916;-70
2023/03/23 08:41:34;;;;;;;;;;;;;;;;;;5081074;28;19923;-70
2023/03/23 08:44:00;;;;;;;;;;;;;;;;;;5078528;28;19962;-71
2023/03/23 08:46:25;;;;;;;;;;;;;;;;;;5080553;28;19956;-70
2023/03/23 08:48:50;;;;;;;;;;;;;;;;;;5059390;28;19927;-71
2023/03/23 08:51:16;;;;;;;;;;;;;;;;;;5074610;28;19916;-70
2023/03/23 08:53:42;;;;;;;;;;;;;;;;;;5061812;28;19916;-70
2023/03/23 08:56:07;;;;;;;;;;;;;;;;;;5062939;28;19912;-70
2023/03/23 08:58:33;;;;;;;;;;;;;;;;;;5064261;28;20016;-70
2023/03/23 09:00:59;;;;;;;;;;;;;;;;;;5079663;28;19917;-70
2023/03/23 09:03:24;;;;;;;;;;;;;;;;;;5076577;28;20283;-69
2023/03/23 09:05:49;;;;;;;;;;;;;;;;;;5077049;28;20350;-71
2023/03/23 09:08:15;;;;;;;;;;;;;;;;;;5073613;28;19934;-71
2023/03/23 09:10:40;;;;;;;;;;;;;;;;;;5064340;28;20401;-70
2023/03/23 09:13:06;;;;;;;;;;;;;;;;;;5056598;28;20011;-70
2023/03/23 09:15:31;;;;;;;;;;;;;;;;;;5056986;28;21533;-70
2023/03/23 09:17:57;;;;;;;;;;;;;;;;;;5072285;28;19965;-71
2023/03/23 09:20:22;;;;;;;;;;;;;;;;;;5071749;28;19927;-70
2023/03/23 09:22:47;;;;;;;;;;;;;;;;;;5075490;28;19933;-70
2023/03/23 09:25:13;;;;;;;;;;;;;;;;;;5077128;28;20360;-70
2023/03/23 09:27:39;;;;;;;;;;;;;;;;;;5051481;28;19961;-70
2023/03/23 09:30:05;;;;;;;;;;;;;;;;;;5072817;28;19913;-70
2023/03/23 09:32:31;;;;;;;;;;;;;;;;;;5061361;28;19942;-70
2023/03/23 09:34:56;;;;;;;;;;;;;;;;;;5076956;28;20006;-71
2023/03/23 09:37:21;;;;;;;;;;;;;;;;;;5079361;28;20257;-70
2023/03/23 09:39:46;;;;;;;;;;;;;;;;;;5064135;28;20356;-70
2023/03/23 09:42:12;;;;;;;;;;;;;;;;;;5081538;28;19920;-70
2023/03/23 09:44:37;;;;;;;;;;;;;;;;;;5078635;28;20417;-70
2023/03/23 09:47:03;;;;;;;;;;;;;;;;;;5079805;28;19916;-70
2023/03/23 09:49:28;;;;;;;;;;;;;;;;;;5075278;28;19942;-70
2023/03/23 09:51:53;;;;;;;;;;;;;;;;;;5079751;28;19919;-70
2023/03/23 09:54:18;;;;;;;;;;;;;;;;;;5057145;28;19908;-70
2023/03/23 09:56:43;;;;;;;;;;;;;;;;;;5078359;28;19978;-70
2023/03/23 09:59:08;;;;;;;;;;;;;;;;;;5080688;28;19920;-70
2023/03/23 10:01:34;;;;;;;;;;;;;;;;;;5076442;28;19923;-71
2023/03/23 10:03:59;;;;;;;;;;;;;;;;;;5076052;28;19912;-71
2023/03/23 10:06:24;;;;;;;;;;;;;;;;;;5077360;28;19963;-70
2023/03/23 10:08:49;;;;;;;;;;;;;;;;;;5080789;28;20269;-70
2023/03/23 10:11:14;;;;;;;;;;;;;;;;;;5081311;28;19912;-72
2023/03/23 10:13:39;;;;;;;;;;;;;;;;;;5061593;28;20442;-70
2023/03/23 10:16:05;;;;;;;;;;;;;;;;;;5075569;28;19912;-70
2023/03/23 10:18:30;;;;;;;;;;;;;;;;;;5084092;28;19935;-71
2023/03/23 10:20:56;;;;;;;;;;;;;;;;;;5077442;28;19957;-70
2023/03/23 10:23:22;;;;;;;;;;;;;;;;;;5078465;28;19916;-70
2023/03/23 10:25:47;;;;;;;;;;;;;;;;;;5079776;28;19920;-70
2023/03/23 10:28:13;;;;;;;;;;;;;;;;;;5082080;28;19962;-71
2023/03/23 10:30:38;;;;;;;;;;;;;;;;;;5066688;28;20003;-70
2023/03/23 10:33:03;;;;;;;;;;;;;;;;;;5081125;28;19973;-71
2023/03/23 10:35:29;;;;;;;;;;;;;;;;;;5077730;28;19916;-71
2023/03/23 10:37:56;;;;;;;;;;;;;;;;;;5083427;28;19965;-71
2023/03/23 10:40:23;;;;;;;;;;;;;;;;;;5080765;28;19923;-71
2023/03/23 10:42:48;;;;;;;;;;;;;;;;;;5082478;28;19927;-71
2023/03/23 10:45:14;;;;;;;;;;;;;;;;;;5079375;28;20011;-71
2023/03/23 10:47:39;;;;;;;;;;;;;;;;;;5084114;28;19966;-70
2023/03/23 10:50:05;;;;;;;;;;;;;;;;;;5075541;28;19928;-71
2023/03/23 10:52:31;;;;;;;;;;;;;;;;;;5071375;28;19924;-71
2023/03/23 10:54:56;;;;;;;;;;;;;;;;;;5060721;28;19939;-71
2023/03/23 10:57:21;;;;;;;;;;;;;;;;;;5063908;28;19912;-71
2023/03/23 10:59:47;;;;;;;;;;;;;;;;;;5063075;28;20334;-71
2023/03/23 11:02:12;;;;;;;;;;;;;;;;;;5082052;28;19913;-71
2023/03/23 11:04:37;;;;;;;;;;;;;;;;;;5091989;28;19920;-70
2023/03/23 11:07:02;;;;;;;;;;;;;;;;;;5085089;28;19927;-70
2023/03/23 11:09:27;;;;;;;;;;;;;;;;;;5081920;28;19912;-70
2023/03/23 11:11:53;;;;;;;;;;;;;;;;;;5083680;28;19912;-70
2023/03/23 11:14:18;;;;;;;;;;;;;;;;;;5085094;28;20350;-71
2023/03/23 11:16:44;;;;;;;;;;;;;;;;;;5083721;28;19912;-70
2023/03/23 11:19:09;;;;;;;;;;;;;;;;;;5076978;28;19924;-71
2023/03/23 11:21:34;;;;;;;;;;;;;;;;;;5079875;28;19912;-71
2023/03/23 11:23:59;;;;;;;;;;;;;;;;;;5070819;28;19923;-71
2023/03/23 11:26:24;;;;;;;;;;;;;;;;;;5071098;28;19975;-72
2023/03/23 11:28:49;;;;;;;;;;;;;;;;;;5079609;28;19920;-71
2023/03/23 11:31:15;;;;;;;;;;;;;;;;;;5077713;28;19919;-72
2023/03/23 11:33:40;;;;;;;;;;;;;;;;;;5081792;28;19912;-70
2023/03/23 11:36:06;;;;;;;;;;;;;;;;;;5075727;28;19916;-71
2023/03/23 11:38:31;;;;;;;;;;;;;;;;;;5075619;28;19913;-71
2023/03/23 11:40:56;;;;;;;;;;;;;;;;;;5075895;28;20376;-72
2023/03/23 11:43:24;;;;;;;;;;;;;;;;;;5078277;28;19961;-73
2023/03/23 11:45:49;;;;;;;;;;;;;;;;;;5076287;28;19928;-72
2023/03/23 11:48:14;;;;;;;;;;;;;;;;;;5077132;28;19919;-71
2023/03/23 11:50:40;;;;;;;;;;;;;;;;;;5072458;28;19939;-70
2023/03/23 11:53:05;;;;;;;;;;;;;;;;;;5078121;28;20260;-70
2023/03/23 11:55:31;;;;;;;;;;;;;;;;;;5077019;28;19912;-70
2023/03/23 11:57:56;;;;;;;;;;;;;;;;;;5080454;28;19916;-70
2023/03/23 12:00:22;;;;;;;;;;;;;;;;;;5059538;28;20006;-70
2023/03/23 12:02:47;;;;;;;;;;;;;;;;;;5077592;28;20341;-70
2023/03/23 12:05:12;;;;;;;;;;;;;;;;;;5075764;28;19920;-70
2023/03/23 12:07:38;;;;;;;;;;;;;;;;;;5079696;28;19916;-70
2023/03/23 12:10:03;;;;;;;;;;;;;;;;;;5078279;28;20202;-70
2023/03/23 12:12:28;;;;;;;;;;;;;;;;;;5074405;28;20861;-70
2023/03/23 12:14:53;;;;;;;;;;;;;;;;;;5078135;28;19913;-70
2023/03/23 12:17:18;;;;;;;;;;;;;;;;;;5061245;28;20019;-70
2023/03/23 12:19:45;;;;;;;;;;;;;;;;;;5073671;28;19975;-71
2023/03/23 12:22:12;;;;;;;;;;;;;;;;;;5077084;28;19927;-71
2023/03/23 12:24:37;;;;;;;;;;;;;;;;;;5074424;28;19916;-69
2023/03/23 12:27:03;;;;;;;;;;;;;;;;;;5078294;28;19995;-71
2023/03/23 12:29:28;;;;;;;;;;;;;;;;;;5073185;28;19924;-70
2023/03/23 12:31:54;;;;;;;;;;;;;;;;;;5077782;28;20635;-70
2023/03/23 12:34:20;;;;;;;;;;;;;;;;;;5058707;28;19920;-71
2023/03/23 12:36:46;;;;;;;;;;;;;;;;;;5080616;28;20395;-70
2023/03/23 12:39:12;;;;;;;;;;;;;;;;;;5078678;28;19916;-70
2023/03/23 12:41:37;;;;;;;;;;;;;;;;;;5071826;28;19924;-71
2023/03/23 12:44:02;;;;;;;;;;;;;;;;;;5077693;28;19919;-70
2023/03/23 12:46:27;;;;;;;;;;;;;;;;;;5066055;28;19924;-69
2023/03/23 12:48:53;;;;;;;;;;;;;;;;;;5083149;28;19916;-69
2023/03/23 12:51:18;;;;;;;;;;;;;;;;;;5074456;28;19912;-69
2023/03/23 12:53:43;;;;;;;;;;;;;;;;;;5077720;28;19927;-69
2023/03/23 12:56:09;;;;;;;;;;;;;;;;;;5060776;28;19930;-70
2023/03/23 12:58:34;;;;;;;;;;;;;;;;;;5075845;28;19916;-69
2023/03/23 13:01:00;;;;;;;;;;;;;;;;;;5080187;28;19912;-70
2023/03/23 13:03:26;;;;;;;;;;;;;;;;;;5058988;28;20360;-69
2023/03/23 13:05:54;;;;;;;;;;;;;;;;;;5073052;28;19924;-69
2023/03/23 13:08:20;;;;;;;;;;;;;;;;;;5076983;28;19999;-70
2023/03/23 13:10:45;;;;;;;;;;;;;;;;;;5063452;28;20007;-68
2023/03/23 13:13:10;;;;;;;;;;;;;;;;;;5077504;28;20392;-69
2023/03/23 13:15:36;;;;;;;;;;;;;;;;;;5075873;28;19944;-69
2023/03/23 13:18:02;;;;;;;;;;;;;;;;;;5077616;28;19928;-69
2023/03/23 13:20:31;;;;;;;;;;;;;;;;;;5076669;28;19933;-70
2023/03/23 13:22:57;;;;;;;;;;;;;;;;;;5077740;28;20425;-70
2023/03/23 13:25:22;;;;;;;;;;;;;;;;;;5075381;28;20038;-69
2023/03/23 13:27:47;;;;;;;;;;;;;;;;;;5069518;28;20043;-71
2023/03/23 13:30:13;;;;;;;;;;;;;;;;;;5074203;28;20074;-70
2023/03/23 13:32:38;;;;;;;;;;;;;;;;;;5073041;28;20430;-70
2023/03/23 13:35:04;;;;;;;;;;;;;;;;;;5070297;28;20019;-70
2023/03/23 13:37:30;;;;;;;;;;;;;;;;;;5074606;28;19956;-70
2023/03/23 13:39:56;;;;;;;;;;;;;;;;;;5057598;28;19952;-70
2023/03/23 13:42:21;;;;;;;;;;;;;;;;;;5068813;28;20482;-70
2023/03/23 13:44:47;;;;;;;;;;;;;;;;;;5069924;28;19913;-70
2023/03/23 13:47:13;;;;;;;;;;;;;;;;;;5077149;28;20326;-70
2023/03/23 13:49:38;;;;;;;;;;;;;;;;;;5059461;28;19925;-72
2023/03/23 13:52:03;;;;;;;;;;;;;;;;;;5078795;28;19913;-70
2023/03/23 13:54:28;;;;;;;;;;;;;;;;;;5071572;28;19916;-70
2023/03/23 13:56:54;;;;;;;;;;;;;;;;;;5080523;28;19912;-70
2023/03/23 13:59:20;;;;;;;;;;;;;;;;;;5076528;28;19912;-70
2023/03/23 14:01:45;;;;;;;;;;;;;;;;;;5087145;28;19908;-70
2023/03/23 14:04:10;;;;;;;;;;;;;;;;;;5085963;28;20268;-71
2023/03/23 14:06:35;;;;;;;;;;;;;;;;;;5075211;28;19920;-70
2023/03/23 14:09:02;;;;;;;;;;;;;;;;;;5066551;28;19912;-70
2023/03/23 14:11:27;;;;;;;;;;;;;;;;;;5086997;28;19909;-70
2023/03/23 14:13:52;;;;;;;;;;;;;;;;;;5078622;28;19912;-71
2023/03/23 14:16:17;;;;;;;;;;;;;;;;;;5080118;28;20307;-70
2023/03/23 14:18:44;;;;;;;;;;;;;;;;;;5079767;28;19943;-70
2023/03/23 14:21:09;;;;;;;;;;;;;;;;;;5076296;28;19920;-69
2023/03/23 14:23:34;;;;;;;;;;;;;;;;;;5078646;28;19916;-70
2023/03/23 14:26:05;;;;;;;;;;;;;;;;;;5080386;28;19916;-70
2023/03/23 14:28:32;;;;;;;;;;;;;;;;;;5089516;28;20007;-70
2023/03/23 14:30:57;;;;;;;;;;;;;;;;;;5083870;28;20006;-70
2023/03/23 14:33:22;;;;;;;;;;;;;;;;;;5070623;28;19948;-69
2023/03/23 14:35:49;;;;;;;;;;;;;;;;;;5082404;28;20318;-70
2023/03/23 14:38:14;;;;;;;;;;;;;;;;;;5082497;28;19912;-70
2023/03/23 14:40:39;;;;;;;;;;;;;;;;;;5089222;28;19916;-70
2023/03/23 14:43:05;;;;;;;;;;;;;;;;;;5065055;28;20023;-70
2023/03/23 14:45:30;;;;;;;;;;;;;;;;;;5093366;28;20019;-70
2023/03/23 14:47:57;;;;;;;;;;;;;;;;;;5085961;28;20027;-70
2023/03/23 14:50:22;;;;;;;;;;;;;;;;;;5074465;28;20358;-68
2023/03/23 14:52:47;;;;;;;;;;;;;;;;;;5071762;28;20332;-69
2023/03/23 14:55:12;;;;;;;;;;;;;;;;;;5083713;28;20257;-70
2023/03/23 14:57:37;;;;;;;;;;;;;;;;;;5080049;28;19916;-70
2023/03/23 15:00:03;;;;;;;;;;;;;;;;;;5086112;28;19919;-70
2023/03/23 15:02:28;;;;;;;;;;;;;;;;;;5080711;28;20356;-70
2023/03/23 15:04:53;;;;;;;;;;;;;;;;;;5085389;28;19950;-69
2023/03/23 15:07:18;;;;;;;;;;;;;;;;;;5083371;28;19962;-69
2023/03/23 15:09:44;;;;;;;;;;;;;;;;;;5067354;28;20288;-69
2023/03/23 15:12:10;;;;;;;;;;;;;;;;;;5082677;28;19912;-69
2023/03/23 15:14:35;;;;;;;;;;;;;;;;;;5084936;28;19927;-69
2023/03/23 15:17:00;;;;;;;;;;;;;;;;;;5087812;28;19919;-69
2023/03/23 15:19:25;;;;;;;;;;;;;;;;;;5080044;28;19939;-70
2023/03/23 15:21:50;;;;;;;;;;;;;;;;;;5081686;28;20402;-70
2023/03/23 15:24:16;;;;;;;;;;;;;;;;;;5088710;28;19955;-70
2023/03/23 15:26:41;;;;;;;;;;;;;;;;;;5083324;28;19916;-70
2023/03/23 15:29:08;;;;;;;;;;;;;;;;;;5081757;28;20444;-70
2023/03/23 15:31:33;;;;;;;;;;;;;;;;;;5079780;28;19995;-71
2023/03/23 15:33:58;;;;;;;;;;;;;;;;;;5086227;28;19995;-70
2023/03/23 15:36:23;;;;;;;;;;;;;;;;;;5077151;28;19912;-70
2023/03/23 15:38:48;;;;;;;;;;;;;;;;;;5084906;28;19923;-70
2023/03/23 15:41:13;;;;;;;;;;;;;;;;;;5082499;28;19932;-68
2023/03/23 15:43:38;;;;;;;;;;;;;;;;;;5083943;28;19912;-69
2023/03/23 15:46:04;;;;;;;;;;;;;;;;;;5064672;28;19919;-68
2023/03/23 15:48:29;;;;;;;;;;;;;;;;;;5077032;28;19920;-69
2023/03/23 15:50:54;;;;;;;;;;;;;;;;;;5081151;28;19916;-69
2023/03/23 15:53:20;;;;;;;;;;;;;;;;;;5082901;28;19924;-69
2023/03/23 15:55:45;;;;;;;;;;;;;;;;;;5076130;28;19912;-69
2023/03/23 15:58:10;;;;;;;;;;;;;;;;;;5071865;28;20602;-69
2023/03/23 16:00:35;;;;;;;;;;;;;;;;;;5055532;28;19940;-68
2023/03/23 16:03:00;;;;;;;;;;;;;;;;;;5069987;28;20348;-70
2023/03/23 16:05:25;;;;;;;;;;;;;;;;;;5073960;28;19920;-70
2023/03/23 16:07:51;;;;;;;;;;;;;;;;;;5070704;28;19962;-70
2023/03/23 16:10:16;;;;;;;;;;;;;;;;;;5072515;28;19916;-70
2023/03/23 16:12:41;;;;;;;;;;;;;;;;;;5072074;28;19913;-70
2023/03/23 16:15:08;;;;;;;;;;;;;;;;;;5077379;28;20647;-71
2023/03/23 16:17:33;;;;;;;;;;;;;;;;;;5059219;28;20301;-70
2023/03/23 16:19:58;;;;;;;;;;;;;;;;;;5054276;28;20452;-70
2023/03/23 16:22:23;;;;;;;;;;;;;;;;;;5067435;28;20435;-70
2023/03/23 16:24:48;;;;;;;;;;;;;;;;;;5061357;28;20411;-70
2023/03/23 16:27:13;;;;;;;;;;;;;;;;;;5071349;28;20011;-71
2023/03/23 16:29:39;;;;;;;;;;;;;;;;;;5074931;28;20435;-70
2023/03/23 16:32:04;;;;;;;;;;;;;;;;;;5075644;28;20012;-70
2023/03/23 16:34:32;;;;;;;;;;;;;;;;;;5071624;28;19947;-70